createdAt,value
2018-01-25T00:00:24.276Z,7.53
2018-01-25T00:02:51.884Z,6.78
2018-01-25T00:05:20.265Z,8.60
2018-01-25T00:07:47.925Z,7.80
2018-01-25T00:10:23.829Z,6.80
2018-01-25T00:12:52.711Z,8.38
2018-01-25T00:15:20.320Z,9.30
2018-01-25T00:17:47.946Z,8.23
2018-01-25T00:20:15.602Z,8.75
2018-01-25T00:22:43.210Z,8.40
2018-01-25T00:25:10.854Z,7.60
2018-01-25T00:27:38.506Z,7.57
2018-01-25T00:30:06.868Z,9.30
2018-01-25T00:32:34.476Z,8.65
2018-01-25T00:35:02.889Z,10.25
2018-01-25T00:37:30.502Z,8.40
2018-01-25T00:39:58.110Z,9.98
2018-01-25T00:42:26.510Z,9.00
2018-01-25T00:44:54.876Z,9.68
2018-01-25T00:47:22.487Z,8.85
2018-01-25T00:49:50.126Z,9.77
2018-01-25T00:52:17.732Z,8.20
2018-01-25T00:54:45.340Z,9.13
2018-01-25T00:57:12.974Z,9.75
2018-01-25T00:59:40.582Z,9.45
2018-01-25T01:02:08.194Z,8.82
2018-01-25T01:04:35.836Z,9.68
2018-01-25T01:07:03.515Z,8.40
2018-01-25T01:09:31.125Z,8.43
2018-01-25T01:11:58.767Z,8.98
2018-01-25T01:14:26.377Z,8.15
2018-01-25T01:16:54.748Z,9.23
2018-01-25T01:19:22.387Z,8.73
2018-01-25T01:21:49.998Z,8.52
2018-01-25T01:24:17.602Z,9.55
2018-01-25T01:26:46.004Z,8.93
2018-01-25T01:29:13.616Z,9.15
2018-01-25T01:31:41.224Z,10.95
2018-01-25T01:34:09.631Z,10.13
2018-01-25T01:36:38.003Z,9.57
2018-01-25T01:39:05.610Z,9.57
2018-01-25T01:41:33.262Z,10.10
2018-01-25T01:44:01.651Z,9.23
2018-01-25T01:46:30.028Z,9.07
2018-01-25T01:48:57.674Z,10.50
2018-01-25T01:51:25.289Z,9.65
2018-01-25T01:53:53.673Z,9.30
2018-01-25T01:56:22.086Z,9.50
2018-01-25T01:58:50.457Z,8.90
2018-01-25T02:01:18.833Z,9.32
2018-01-25T02:03:46.476Z,8.68
2018-01-25T02:06:14.083Z,9.75
2018-01-25T02:08:41.700Z,8.60
2018-01-25T02:11:09.343Z,8.93
2018-01-25T02:13:36.952Z,9.63
2018-01-25T02:16:04.566Z,8.35
2018-01-25T02:18:32.197Z,7.85
2018-01-25T02:20:59.802Z,8.68
2018-01-25T02:23:27.396Z,7.95
2018-01-25T02:25:55.037Z,8.38
2018-01-25T02:28:22.645Z,9.00
2018-01-25T02:30:50.262Z,7.53
2018-01-25T02:33:17.907Z,9.63
2018-01-25T02:35:45.544Z,9.15
2018-01-25T02:38:13.150Z,8.70
2018-01-25T02:40:40.793Z,8.98
2018-01-25T02:43:08.401Z,9.40
2018-01-25T02:45:36.016Z,9.55
2018-01-25T02:48:03.661Z,8.80
2018-01-25T02:50:32.033Z,9.25
2018-01-25T02:52:59.641Z,8.77
2018-01-25T02:55:27.277Z,8.25
2018-01-25T02:57:54.877Z,8.52
2018-01-25T03:00:23.246Z,8.82
2018-01-25T03:02:50.890Z,10.25
2018-01-25T03:05:18.498Z,8.55
2018-01-25T03:07:46.101Z,8.05
2018-01-25T03:10:13.747Z,8.05
2018-01-25T03:12:41.364Z,8.63
2018-01-25T03:15:08.969Z,9.05
2018-01-25T03:17:36.628Z,9.40
2018-01-25T03:20:04.233Z,8.57
2018-01-25T03:22:31.836Z,7.75
2018-01-25T03:25:00.274Z,11.75
2018-01-25T03:27:27.881Z,10.10
2018-01-25T03:29:55.492Z,8.52
2018-01-25T03:32:23.142Z,8.63
2018-01-25T03:34:51.515Z,7.72
2018-01-25T03:37:19.117Z,6.80
2018-01-25T03:39:47.532Z,8.48
2018-01-25T03:42:15.142Z,5.43
2018-01-25T03:44:42.786Z,5.75
2018-01-25T03:47:10.425Z,6.25
2018-01-25T03:49:38.803Z,6.50
2018-01-25T03:52:06.418Z,5.93
2018-01-25T03:54:34.063Z,5.97
2018-01-25T03:57:02.479Z,8.48
2018-01-25T03:59:30.084Z,8.40
2018-01-25T04:01:57.756Z,7.18
2018-01-25T04:04:25.370Z,9.45
2018-01-25T04:06:52.977Z,6.30
2018-01-25T04:09:20.622Z,6.47
2018-01-25T04:11:49.001Z,7.70
2018-01-25T04:14:16.609Z,6.78
2018-01-25T04:16:44.253Z,12.98
2018-01-25T04:19:12.625Z,9.35
2018-01-25T04:21:40.235Z,7.78
2018-01-25T04:24:08.645Z,9.10
2018-01-25T04:26:36.257Z,7.85
2018-01-25T04:29:03.865Z,7.30
2018-01-25T04:31:32.274Z,5.93
2018-01-25T04:33:59.884Z,7.70
2018-01-25T04:36:27.489Z,8.88
2018-01-25T04:38:55.130Z,8.40
2018-01-25T04:41:22.738Z,7.25
2018-01-25T04:43:50.345Z,6.03
2018-01-25T04:46:17.979Z,7.22
2018-01-25T04:48:45.601Z,6.95
2018-01-25T04:51:13.218Z,6.95
2018-01-25T04:53:40.865Z,10.45
2018-01-25T04:56:08.476Z,6.65
2018-01-25T04:58:36.103Z,7.18
2018-01-25T05:01:03.750Z,7.55
2018-01-25T05:03:32.112Z,6.45
2018-01-25T05:05:59.726Z,6.40
2018-01-25T05:08:27.361Z,7.32
2018-01-25T05:10:54.968Z,7.20
2018-01-25T05:13:23.332Z,6.53
2018-01-25T05:15:50.974Z,7.93
2018-01-25T05:18:18.578Z,7.90
2018-01-25T05:20:46.185Z,7.53
2018-01-25T05:23:13.821Z,7.65
2018-01-25T05:25:41.437Z,10.73
2018-01-25T05:28:09.055Z,7.82
2018-01-25T05:30:36.700Z,8.35
2018-01-25T05:33:04.309Z,8.15
2018-01-25T05:35:31.912Z,9.48
2018-01-25T05:38:00.320Z,8.02
2018-01-25T05:40:28.692Z,9.40
2018-01-25T05:42:57.064Z,10.38
2018-01-25T05:45:24.699Z,7.85
2018-01-25T05:47:52.307Z,6.75
2018-01-25T05:50:19.904Z,8.63
2018-01-25T05:52:47.549Z,7.80
2018-01-25T05:55:15.268Z,7.82
2018-01-25T05:57:42.853Z,7.45
2018-01-25T06:00:10.505Z,6.68
2018-01-25T06:02:38.141Z,7.60
2018-01-25T06:05:05.753Z,8.40
2018-01-25T06:07:34.169Z,7.57
2018-01-25T06:10:01.790Z,8.70
2018-01-25T06:12:29.397Z,7.12
2018-01-25T06:14:57.817Z,7.45
2018-01-25T06:17:25.541Z,6.40
2018-01-25T06:19:53.150Z,9.00
2018-01-25T06:22:21.714Z,8.50
2018-01-25T06:24:49.340Z,10.10
2018-01-25T06:27:16.952Z,8.27
2018-01-25T06:29:44.598Z,7.47
2018-01-25T06:32:12.233Z,9.27
2018-01-25T06:34:40.618Z,7.95
2018-01-25T06:37:09.040Z,7.97
2018-01-25T06:39:36.653Z,7.68
2018-01-25T06:42:04.252Z,6.72
2018-01-25T06:44:31.895Z,6.93
2018-01-25T06:46:59.509Z,6.85
2018-01-25T06:49:27.877Z,6.72
2018-01-25T06:51:55.525Z,5.85
2018-01-25T06:54:23.129Z,7.53
2018-01-25T06:56:50.750Z,6.28
2018-01-25T06:59:18.401Z,5.60
2018-01-25T07:01:46.773Z,6.25
2018-01-25T07:04:14.801Z,5.80
2018-01-25T07:06:42.443Z,5.68
2018-01-25T07:09:10.818Z,5.20
2018-01-25T07:11:38.421Z,3.70
2018-01-25T07:14:06.837Z,5.25
2018-01-25T07:16:34.508Z,3.87
2018-01-25T07:19:02.109Z,5.22
2018-01-25T07:21:29.753Z,5.00
2018-01-25T07:23:57.360Z,5.40
2018-01-25T07:26:24.977Z,6.22
2018-01-25T07:28:53.390Z,7.97
2018-01-25T07:31:20.994Z,5.05
2018-01-25T07:33:48.597Z,5.15
2018-01-25T07:36:16.245Z,6.10
2018-01-25T07:38:43.845Z,5.22
2018-01-25T07:41:11.444Z,5.07
2018-01-25T07:43:39.850Z,5.50
2018-01-25T07:46:07.454Z,6.57
2018-01-25T07:48:35.069Z,5.90
2018-01-25T07:51:03.520Z,6.22
2018-01-25T07:53:31.117Z,7.32
2018-01-25T07:55:58.745Z,20.23
2018-01-25T07:58:26.444Z,11.77
2018-01-25T08:00:54.061Z,14.63
2018-01-25T08:03:22.448Z,18.30
2018-01-25T08:05:50.855Z,8.98
2018-01-25T08:08:19.234Z,6.87
2018-01-25T08:10:47.741Z,7.68
2018-01-25T08:13:21.804Z,8.35
2018-01-25T08:15:49.409Z,8.52
2018-01-25T08:18:17.016Z,10.30
2018-01-25T08:20:44.648Z,9.52
2018-01-25T08:23:12.255Z,10.98
2018-01-25T08:25:40.624Z,12.63
2018-01-25T08:28:08.277Z,10.95
2018-01-25T08:30:35.926Z,11.05
2018-01-25T08:33:03.556Z,9.25
2018-01-25T08:35:31.204Z,10.77
2018-01-25T08:37:58.801Z,9.70
2018-01-25T08:40:26.410Z,9.57
2018-01-25T08:42:54.049Z,9.20
2018-01-25T08:45:21.654Z,8.95
2018-01-25T08:47:49.254Z,8.88
2018-01-25T08:50:16.897Z,8.07
2018-01-25T08:52:44.509Z,7.68
2018-01-25T08:55:12.116Z,7.95
2018-01-25T08:57:39.758Z,9.77
2018-01-25T09:00:07.364Z,9.00
2018-01-25T09:02:34.977Z,7.20
2018-01-25T09:05:02.613Z,7.57
2018-01-25T09:07:30.229Z,9.95
2018-01-25T09:09:57.833Z,7.87
2018-01-25T09:12:25.472Z,8.82
2018-01-25T09:14:53.082Z,8.80
2018-01-25T09:17:20.693Z,9.60
2018-01-25T09:19:49.106Z,6.28
2018-01-25T09:22:16.814Z,8.07
2018-01-25T09:24:44.431Z,9.27
2018-01-25T09:27:12.845Z,6.45
2018-01-25T09:29:40.457Z,6.20
2018-01-25T09:32:08.060Z,6.60
2018-01-25T09:34:35.715Z,7.40
2018-01-25T09:37:03.320Z,6.80
2018-01-25T09:39:31.701Z,10.95
2018-01-25T09:41:59.345Z,6.12
2018-01-25T09:44:26.956Z,8.35
2018-01-25T09:46:55.340Z,7.20
2018-01-25T09:49:22.989Z,6.62
2018-01-25T09:51:50.592Z,6.62
2018-01-25T09:54:18.210Z,7.28
2018-01-25T09:56:45.873Z,8.00
2018-01-25T09:59:13.484Z,7.25
2018-01-25T10:01:41.097Z,8.07
2018-01-25T10:04:09.517Z,11.38
2018-01-25T10:06:37.132Z,8.43
2018-01-25T10:09:04.752Z,10.35
2018-01-25T10:11:32.405Z,7.95
2018-01-25T10:14:00.781Z,7.37
2018-01-25T10:16:28.388Z,7.87
2018-01-25T10:18:56.801Z,7.82
2018-01-25T10:21:24.425Z,7.75
2018-01-25T10:23:52.049Z,8.20
2018-01-25T10:26:19.743Z,9.65
2018-01-25T10:28:47.358Z,8.75
2018-01-25T10:31:15.733Z,9.18
2018-01-25T10:33:43.386Z,10.68
2018-01-25T10:36:10.996Z,7.18
2018-01-25T10:38:39.373Z,8.35
2018-01-25T10:41:07.017Z,9.30
2018-01-25T10:43:34.650Z,9.30
2018-01-25T10:46:03.031Z,8.85
2018-01-25T10:48:30.677Z,11.65
2018-01-25T10:50:58.284Z,8.30
2018-01-25T10:53:26.661Z,8.38
2018-01-25T10:55:54.302Z,8.90
2018-01-25T10:58:21.912Z,8.23
2018-01-25T11:00:55.286Z,7.60
2018-01-25T11:03:22.910Z,7.50
2018-01-25T11:05:50.533Z,10.50
2018-01-25T11:08:18.176Z,6.93
2018-01-25T11:10:45.796Z,8.70
2018-01-25T11:13:13.409Z,9.00
2018-01-25T11:15:41.817Z,8.18
2018-01-25T11:18:09.441Z,9.93
2018-01-25T11:20:37.054Z,9.65
2018-01-25T11:23:04.698Z,8.50
2018-01-25T11:25:32.317Z,10.35
2018-01-25T11:27:59.924Z,9.52
2018-01-25T11:30:27.582Z,11.20
2018-01-25T11:32:55.194Z,8.65
2018-01-25T11:35:22.813Z,8.43
2018-01-25T11:37:50.464Z,8.88
2018-01-25T11:40:18.074Z,10.25
2018-01-25T11:42:45.682Z,9.35
2018-01-25T11:45:13.333Z,10.88
2018-01-25T11:47:40.941Z,9.07
2018-01-25T11:50:08.562Z,14.63
2018-01-25T11:52:36.204Z,9.88
2018-01-25T11:55:04.581Z,11.52
2018-01-25T11:57:32.201Z,13.15
2018-01-25T11:59:59.860Z,13.10
2018-01-25T12:02:28.257Z,13.45
2018-01-25T12:04:56.632Z,11.90
2018-01-25T12:07:25.055Z,14.27
2018-01-25T12:09:52.672Z,12.98
2018-01-25T12:12:20.288Z,11.70
2018-01-25T12:14:48.713Z,13.32
2018-01-25T12:17:16.358Z,12.52
2018-01-25T12:19:43.980Z,11.73
2018-01-25T12:22:11.630Z,11.12
2018-01-25T12:24:39.257Z,11.30
2018-01-25T12:27:07.645Z,11.20
2018-01-25T12:29:35.305Z,10.45
2018-01-25T12:32:02.922Z,12.07
2018-01-25T12:34:31.298Z,10.95
2018-01-25T12:36:59.721Z,11.93
2018-01-25T12:39:27.337Z,11.10
2018-01-25T12:41:55.009Z,13.00
2018-01-25T12:44:22.681Z,11.70
2018-01-25T12:46:50.284Z,11.07
2018-01-25T12:49:18.661Z,11.10
2018-01-25T12:51:46.305Z,10.18
2018-01-25T12:54:13.913Z,10.68
2018-01-25T12:56:41.521Z,13.40
2018-01-25T12:59:09.168Z,11.27
2018-01-25T13:01:36.785Z,11.75
2018-01-25T13:04:04.397Z,10.98
2018-01-25T13:06:32.043Z,9.93
2018-01-25T13:08:59.656Z,10.65
2018-01-25T13:11:27.276Z,11.43
2018-01-25T13:13:54.932Z,11.57
2018-01-25T13:16:22.549Z,11.75
2018-01-25T13:18:50.164Z,10.20
2018-01-25T13:21:18.589Z,11.57
2018-01-25T13:23:46.204Z,11.45
2018-01-25T13:26:13.822Z,12.93
2018-01-25T13:28:41.476Z,11.07
2018-01-25T13:31:09.857Z,12.25
2018-01-25T13:33:42.627Z,13.32
2018-01-25T13:36:10.955Z,13.62
2018-01-25T13:38:39.337Z,13.70
2018-01-25T13:41:06.995Z,12.63
2018-01-25T13:43:34.608Z,14.35
2018-01-25T13:46:02.226Z,15.65
2018-01-25T13:48:29.887Z,16.87
2018-01-25T13:50:57.507Z,14.75
2018-01-25T13:53:25.125Z,14.15
2018-01-25T13:55:52.777Z,14.32
2018-01-25T13:58:21.153Z,14.02
2018-01-25T14:00:49.533Z,15.88
2018-01-25T14:03:17.189Z,12.95
2018-01-25T14:05:44.801Z,13.82
2018-01-25T14:08:13.181Z,14.68
2018-01-25T14:10:40.836Z,13.98
2018-01-25T14:13:08.456Z,13.10
2018-01-25T14:15:36.073Z,13.60
2018-01-25T14:18:03.725Z,13.52
2018-01-25T14:20:31.338Z,12.20
2018-01-25T14:22:58.961Z,16.02
2018-01-25T14:25:26.612Z,14.98
2018-01-25T14:27:55.055Z,13.98
2018-01-25T14:30:22.665Z,13.90
2018-01-25T14:32:51.085Z,14.30
2018-01-25T14:35:18.705Z,15.25
2018-01-25T14:37:46.316Z,14.55
2018-01-25T14:40:14.761Z,13.85
2018-01-25T14:42:42.374Z,16.73
2018-01-25T14:45:10.830Z,12.00
2018-01-25T14:47:38.481Z,13.62
2018-01-25T14:50:06.084Z,12.50
2018-01-25T14:52:33.753Z,14.80
2018-01-25T14:55:01.400Z,14.60
2018-01-25T14:57:29.100Z,13.30
2018-01-25T14:59:56.710Z,15.70
2018-01-25T15:02:24.352Z,12.27
2018-01-25T15:04:51.961Z,11.20
2018-01-25T15:07:20.361Z,12.50
2018-01-25T15:09:48.777Z,12.25
2018-01-25T15:12:16.393Z,18.90
2018-01-25T15:14:44.009Z,14.13
2018-01-25T15:17:12.423Z,14.77
2018-01-25T15:19:40.045Z,13.30
2018-01-25T15:22:07.668Z,12.07
2018-01-25T15:24:35.318Z,13.18
2018-01-25T15:27:03.696Z,11.05
2018-01-25T15:29:31.305Z,13.90
2018-01-25T15:31:58.981Z,13.10
2018-01-25T15:34:26.597Z,12.20
2018-01-25T15:36:54.204Z,12.48
2018-01-25T15:39:22.624Z,14.18
2018-01-25T15:41:50.229Z,13.35
2018-01-25T15:44:17.887Z,14.38
2018-01-25T15:46:45.547Z,14.02
2018-01-25T15:49:13.173Z,14.32
2018-01-25T15:51:40.797Z,15.45
2018-01-25T15:54:08.441Z,13.30
2018-01-25T15:56:36.821Z,12.85
2018-01-25T15:59:05.205Z,12.20
2018-01-25T16:01:32.857Z,15.43
2018-01-25T16:04:01.056Z,13.05
2018-01-25T16:06:28.669Z,12.70
2018-01-25T16:08:57.306Z,12.75
2018-01-25T16:11:25.261Z,13.43
2018-01-25T16:13:53.153Z,17.30
2018-01-25T16:16:21.598Z,13.05
2018-01-25T16:18:49.350Z,14.30
2018-01-25T16:21:17.085Z,14.38
2018-01-25T16:23:44.733Z,15.63
2018-01-25T16:26:13.653Z,17.90
2018-01-25T16:28:42.953Z,14.20
2018-01-25T16:31:11.813Z,15.82
2018-01-25T16:33:39.649Z,18.05
2018-01-25T16:36:08.168Z,18.05
2018-01-25T16:38:35.864Z,18.02
2018-01-25T16:41:04.120Z,19.58
2018-01-25T16:43:31.732Z,20.83
2018-01-25T16:46:01.459Z,16.12
2018-01-25T16:48:30.478Z,20.70
2018-01-25T16:51:00.139Z,19.15
2018-01-25T16:53:28.259Z,16.40
2018-01-25T16:55:57.697Z,19.95
2018-01-25T16:58:26.471Z,17.73
2018-01-25T17:00:54.788Z,17.40
2018-01-25T17:03:23.891Z,15.18
2018-01-25T17:05:51.502Z,16.48
2018-01-25T17:08:20.284Z,19.23
2018-01-25T17:10:48.840Z,18.83
2018-01-25T17:13:17.213Z,18.33
2018-01-25T17:15:44.876Z,18.05
2018-01-25T17:18:12.489Z,19.08
2018-01-25T17:20:40.101Z,16.77
2018-01-25T17:23:09.069Z,15.95
2018-01-25T17:25:36.684Z,18.27
2018-01-25T17:28:05.097Z,17.60
2018-01-25T17:30:34.137Z,18.50
2018-01-25T17:33:04.493Z,19.90
2018-01-25T17:35:33.174Z,20.60
2018-01-25T17:38:01.602Z,19.50
2018-01-25T17:40:29.343Z,20.88
2018-01-25T17:42:58.382Z,20.65
2018-01-25T17:45:27.047Z,18.80
2018-01-25T17:47:54.657Z,24.63
2018-01-25T17:50:25.894Z,23.92
2018-01-25T17:52:54.090Z,24.77
2018-01-25T17:55:24.203Z,20.65
2018-01-25T17:57:53.805Z,23.33
2018-01-25T18:00:22.515Z,26.30
2018-01-25T18:02:51.626Z,24.30
2018-01-25T18:05:19.830Z,22.70
2018-01-25T18:07:47.482Z,27.45
2018-01-25T18:10:15.705Z,23.52
2018-01-25T18:12:44.084Z,24.40
2018-01-25T18:15:11.989Z,25.50
2018-01-25T18:17:39.607Z,25.90
2018-01-25T18:20:07.257Z,25.45
2018-01-25T18:22:35.694Z,24.40
2018-01-25T18:25:03.315Z,26.85
2018-01-25T18:27:31.000Z,26.95
2018-01-25T18:29:58.616Z,24.35
2018-01-25T18:32:26.228Z,26.35
2018-01-25T18:34:54.645Z,27.13
2018-01-25T18:37:22.259Z,27.10
2018-01-25T18:39:49.871Z,29.70
2018-01-25T18:42:18.286Z,26.52
2018-01-25T18:44:45.902Z,28.38
2018-01-25T18:47:13.537Z,29.92
2018-01-25T18:49:41.186Z,25.70
2018-01-25T18:52:09.569Z,27.00
2018-01-25T18:54:39.154Z,25.45
2018-01-25T18:57:06.801Z,27.90
2018-01-25T18:59:34.421Z,28.25
2018-01-25T19:02:02.029Z,29.15
2018-01-25T19:04:30.536Z,27.10
2018-01-25T19:06:58.757Z,27.40
2018-01-25T19:09:26.373Z,26.83
2018-01-25T19:11:54.808Z,30.15
2018-01-25T19:14:22.565Z,27.20
2018-01-25T19:16:50.214Z,26.60
2018-01-25T19:19:18.697Z,29.65
2018-01-25T19:21:46.331Z,26.45
2018-01-25T19:24:13.953Z,27.15
2018-01-25T19:26:42.389Z,33.55
2018-01-25T19:29:10.643Z,27.37
2018-01-25T19:31:42.884Z,25.65
2018-01-25T19:34:10.492Z,29.45
2018-01-25T19:36:38.872Z,28.12
2018-01-25T19:39:06.529Z,29.30
2018-01-25T19:41:34.823Z,30.23
2018-01-25T19:44:06.621Z,34.80
2018-01-25T19:46:35.266Z,30.15
2018-01-25T19:49:02.879Z,28.98
2018-01-25T19:51:30.690Z,29.90
2018-01-25T19:53:58.870Z,31.77
2018-01-25T19:56:31.413Z,27.40
2018-01-25T19:58:59.037Z,33.28
2018-01-25T20:01:32.149Z,32.40
2018-01-25T20:03:59.791Z,29.85
2018-01-25T20:06:28.190Z,29.90
2018-01-25T20:08:56.608Z,33.65
2018-01-25T20:11:24.324Z,31.00
2018-01-25T20:13:56.405Z,31.20
2018-01-25T20:16:24.749Z,29.33
2018-01-25T20:18:52.361Z,32.63
2018-01-25T20:21:20.008Z,31.30
2018-01-25T20:23:47.621Z,29.15
2018-01-25T20:26:15.238Z,32.38
2018-01-25T20:28:43.654Z,35.03
2018-01-25T20:31:11.256Z,27.87
2018-01-25T20:33:39.296Z,33.63
2018-01-25T20:36:12.671Z,31.33
2018-01-25T20:38:42.766Z,31.60
2018-01-25T20:41:10.488Z,29.83
2018-01-25T20:43:38.193Z,32.47
2018-01-25T20:46:05.830Z,35.20
2018-01-25T20:48:33.448Z,32.08
2018-01-25T20:51:01.098Z,39.40
2018-01-25T20:53:29.476Z,32.50
2018-01-25T20:55:57.090Z,37.72
2018-01-25T20:58:24.741Z,30.80
2018-01-25T21:00:53.182Z,37.03
2018-01-25T21:03:24.393Z,38.95
2018-01-25T21:05:52.848Z,35.72
2018-01-25T21:08:21.478Z,34.08
2018-01-25T21:10:50.400Z,38.42
2018-01-25T21:13:31.648Z,42.05
2018-01-25T21:15:59.701Z,34.58
2018-01-25T21:18:27.547Z,41.72
2018-01-25T21:20:55.418Z,41.55
2018-01-25T21:23:23.225Z,32.53
2018-01-25T21:25:51.986Z,41.90
2018-01-25T21:28:21.916Z,42.35
2018-01-25T21:30:51.859Z,40.33
2018-01-25T21:33:21.245Z,41.22
2018-01-25T21:35:50.102Z,41.65
2018-01-25T21:38:19.062Z,45.65
2018-01-25T21:40:49.375Z,48.35
2018-01-25T21:43:21.625Z,44.20
2018-01-25T21:45:50.433Z,46.08
2018-01-25T21:48:19.359Z,45.12
2018-01-25T21:50:48.892Z,48.33
2018-01-25T21:53:18.118Z,45.47
2018-01-25T21:55:46.378Z,43.03
2018-01-25T21:58:14.020Z,47.55
2018-01-25T22:00:43.162Z,44.58
2018-01-25T22:03:10.818Z,44.28
2018-01-25T22:05:39.285Z,48.25
2018-01-25T22:08:08.233Z,43.97
2018-01-25T22:10:36.976Z,45.63
2018-01-25T22:13:05.517Z,49.10
2018-01-25T22:15:34.394Z,53.08
2018-01-25T22:18:02.910Z,48.40
2018-01-25T22:20:43.071Z,46.40
2018-01-25T22:23:12.136Z,49.10
2018-01-25T22:25:39.755Z,55.70
2018-01-25T22:28:07.409Z,53.58
2018-01-25T22:30:35.021Z,51.92
2018-01-25T22:33:02.648Z,47.05
2018-01-25T22:35:31.077Z,50.78
2018-01-25T22:37:58.697Z,52.62
2018-01-25T22:40:26.313Z,58.00
2018-01-25T22:42:53.962Z,55.33
2018-01-25T22:45:22.342Z,56.13
2018-01-25T22:47:50.725Z,53.78
2018-01-25T22:50:18.384Z,56.05
2018-01-25T22:52:46.004Z,57.62
2018-01-25T22:55:13.616Z,53.00
2018-01-25T22:57:41.266Z,52.78
2018-01-25T23:00:08.886Z,54.55
2018-01-25T23:02:36.509Z,55.08
2018-01-25T23:05:04.206Z,49.65
2018-01-25T23:07:31.821Z,53.67
2018-01-25T23:09:59.438Z,54.67
2018-01-25T23:12:27.093Z,56.95
2018-01-25T23:14:55.473Z,52.33
2018-01-25T23:17:23.853Z,55.55
2018-01-25T23:19:51.505Z,55.28
2018-01-25T23:22:19.121Z,55.35
2018-01-25T23:24:47.505Z,53.10
2018-01-25T23:27:15.934Z,54.10
2018-01-25T23:29:43.549Z,56.10
2018-01-25T23:32:11.177Z,60.08
2018-01-25T23:34:38.829Z,55.85
2018-01-25T23:37:07.210Z,49.63
2018-01-25T23:39:35.596Z,49.78
2018-01-25T23:42:03.241Z,55.53
2018-01-25T23:44:30.862Z,58.95
2018-01-25T23:46:59.241Z,57.08
2018-01-25T23:49:27.656Z,55.35
2018-01-25T23:51:55.269Z,58.90
2018-01-25T23:54:22.885Z,53.63
2018-01-25T23:56:51.311Z,62.03
2018-01-25T23:59:18.921Z,56.50
